sensor_id;sensor_type;location;lat;lon;timestamp;P1;durP1;ratioP1;P2;durP2;ratioP2
19735;SDS011;32064;49.310;8.646;2022-07-21T00:00:13;8.48;;;5.20;;
19735;SDS011;32064;49.310;8.646;2022-07-21T00:02:39;7.03;;;4.97;;
19735;SDS011;32064;49.310;8.646;2022-07-21T00:05:05;7.90;;;5.45;;
19735;SDS011;32064;49.310;8.646;2022-07-21T00:07:30;7.63;;;5.32;;
19735;SDS011;32064;49.310;8.646;2022-07-21T00:09:56;6.97;;;5.13;;
19735;SDS011;32064;49.310;8.646;2022-07-21T00:12:21;5.82;;;5.22;;
19735;SDS011;32064;49.310;8.646;2022-07-21T00:14:47;5.30;;;4.75;;
19735;SDS011;32064;49.310;8.646;2022-07-21T00:17:12;6.20;;;5.50;;
19735;SDS011;32064;49.310;8.646;2022-07-21T00:19:38;8.00;;;5.72;;
19735;SDS011;32064;49.310;8.646;2022-07-21T00:22:03;7.07;;;4.88;;
19735;SDS011;32064;49.310;8.646;2022-07-21T00:24:28;7.75;;;5.70;;
19735;SDS011;32064;49.310;8.646;2022-07-21T00:26:54;6.50;;;5.65;;
19735;SDS011;32064;49.310;8.646;2022-07-21T00:29:19;5.03;;;4.53;;
19735;SDS011;32064;49.310;8.646;2022-07-21T00:31:45;7.70;;;5.13;;
19735;SDS011;32064;49.310;8.646;2022-07-21T00:34:10;8.40;;;5.30;;
19735;SDS011;32064;49.310;8.646;2022-07-21T00:36:36;7.07;;;4.95;;
19735;SDS011;32064;49.310;8.646;2022-07-21T00:39:01;5.30;;;4.65;;
19735;SDS011;32064;49.310;8.646;2022-07-21T00:41:26;5.50;;;4.82;;
19735;SDS011;32064;49.310;8.646;2022-07-21T00:43:52;6.60;;;5.20;;
19735;SDS011;32064;49.310;8.646;2022-07-21T00:46:19;5.30;;;4.80;;
19735;SDS011;32064;49.310;8.646;2022-07-21T00:48:45;5.35;;;4.85;;
19735;SDS011;32064;49.310;8.646;2022-07-21T00:51:11;8.40;;;4.95;;
19735;SDS011;32064;49.310;8.646;2022-07-21T00:53:36;9.20;;;5.25;;
19735;SDS011;32064;49.310;8.646;2022-07-21T00:56:02;9.13;;;5.78;;
19735;SDS011;32064;49.310;8.646;2022-07-21T00:58:28;6.53;;;5.38;;
19735;SDS011;32064;49.310;8.646;2022-07-21T01:00:53;7.13;;;5.35;;
19735;SDS011;32064;49.310;8.646;2022-07-21T01:03:18;7.57;;;5.78;;
19735;SDS011;32064;49.310;8.646;2022-07-21T01:05:44;8.70;;;5.80;;
19735;SDS011;32064;49.310;8.646;2022-07-21T01:08:10;9.35;;;5.97;;
19735;SDS011;32064;49.310;8.646;2022-07-21T01:10:35;8.32;;;5.85;;
19735;SDS011;32064;49.310;8.646;2022-07-21T01:13:01;6.30;;;5.53;;
19735;SDS011;32064;49.310;8.646;2022-07-21T01:15:27;7.78;;;5.63;;
19735;SDS011;32064;49.310;8.646;2022-07-21T01:17:52;8.73;;;6.95;;
19735;SDS011;32064;49.310;8.646;2022-07-21T01:20:19;7.20;;;6.20;;
19735;SDS011;32064;49.310;8.646;2022-07-21T01:22:47;7.85;;;6.80;;
19735;SDS011;32064;49.310;8.646;2022-07-21T01:25:14;8.85;;;6.63;;
19735;SDS011;32064;49.310;8.646;2022-07-21T01:27:40;7.60;;;5.82;;
19735;SDS011;32064;49.310;8.646;2022-07-21T01:30:06;10.57;;;6.07;;
19735;SDS011;32064;49.310;8.646;2022-07-21T01:32:37;6.40;;;5.80;;
19735;SDS011;32064;49.310;8.646;2022-07-21T01:35:04;8.95;;;5.53;;
19735;SDS011;32064;49.310;8.646;2022-07-21T01:37:31;7.28;;;6.32;;
19735;SDS011;32064;49.310;8.646;2022-07-21T01:39:59;7.32;;;6.28;;
19735;SDS011;32064;49.310;8.646;2022-07-21T01:42:43;7.25;;;5.85;;
19735;SDS011;32064;49.310;8.646;2022-07-21T01:45:09;9.30;;;6.35;;
19735;SDS011;32064;49.310;8.646;2022-07-21T01:47:34;7.25;;;6.40;;
19735;SDS011;32064;49.310;8.646;2022-07-21T01:50:00;8.77;;;6.85;;
19735;SDS011;32064;49.310;8.646;2022-07-21T01:52:26;10.32;;;6.50;;
19735;SDS011;32064;49.310;8.646;2022-07-21T01:54:51;8.02;;;6.18;;
19735;SDS011;32064;49.310;8.646;2022-07-21T01:57:16;7.28;;;6.20;;
19735;SDS011;32064;49.310;8.646;2022-07-21T01:59:44;7.60;;;6.35;;
19735;SDS011;32064;49.310;8.646;2022-07-21T02:02:10;8.35;;;6.35;;
19735;SDS011;32064;49.310;8.646;2022-07-21T02:04:36;8.25;;;6.35;;
19735;SDS011;32064;49.310;8.646;2022-07-21T02:07:01;6.20;;;5.55;;
19735;SDS011;32064;49.310;8.646;2022-07-21T02:09:27;8.32;;;5.80;;
19735;SDS011;32064;49.310;8.646;2022-07-21T02:11:53;8.75;;;6.32;;
19735;SDS011;32064;49.310;8.646;2022-07-21T02:14:18;7.90;;;6.88;;
19735;SDS011;32064;49.310;8.646;2022-07-21T02:16:44;7.80;;;6.45;;
19735;SDS011;32064;49.310;8.646;2022-07-21T02:19:09;6.95;;;6.25;;
19735;SDS011;32064;49.310;8.646;2022-07-21T02:21:35;7.03;;;6.25;;
19735;SDS011;32064;49.310;8.646;2022-07-21T02:24:00;8.85;;;6.13;;
19735;SDS011;32064;49.310;8.646;2022-07-21T02:26:26;9.50;;;6.10;;
19735;SDS011;32064;49.310;8.646;2022-07-21T02:28:51;7.50;;;6.75;;
19735;SDS011;32064;49.310;8.646;2022-07-21T02:31:17;8.13;;;6.18;;
19735;SDS011;32064;49.310;8.646;2022-07-21T02:33:42;7.88;;;5.82;;
19735;SDS011;32064;49.310;8.646;2022-07-21T02:36:08;9.25;;;6.15;;
19735;SDS011;32064;49.310;8.646;2022-07-21T02:38:33;7.47;;;6.05;;
19735;SDS011;32064;49.310;8.646;2022-07-21T02:40:59;8.40;;;6.20;;
19735;SDS011;32064;49.310;8.646;2022-07-21T02:43:24;9.18;;;6.32;;
19735;SDS011;32064;49.310;8.646;2022-07-21T02:45:50;7.90;;;6.18;;
19735;SDS011;32064;49.310;8.646;2022-07-21T02:48:15;8.32;;;6.10;;
19735;SDS011;32064;49.310;8.646;2022-07-21T02:50:41;7.38;;;6.07;;
19735;SDS011;32064;49.310;8.646;2022-07-21T02:53:09;6.95;;;5.88;;
19735;SDS011;32064;49.310;8.646;2022-07-21T02:55:39;8.13;;;5.93;;
19735;SDS011;32064;49.310;8.646;2022-07-21T02:58:13;7.18;;;6.47;;
19735;SDS011;32064;49.310;8.646;2022-07-21T03:00:53;7.00;;;6.13;;
19735;SDS011;32064;49.310;8.646;2022-07-21T03:03:25;7.38;;;5.97;;
19735;SDS011;32064;49.310;8.646;2022-07-21T03:05:52;9.90;;;6.30;;
19735;SDS011;32064;49.310;8.646;2022-07-21T03:08:19;6.45;;;5.85;;
19735;SDS011;32064;49.310;8.646;2022-07-21T03:10:47;7.57;;;6.45;;
19735;SDS011;32064;49.310;8.646;2022-07-21T03:13:13;9.35;;;6.40;;
19735;SDS011;32064;49.310;8.646;2022-07-21T03:15:39;8.70;;;5.78;;
19735;SDS011;32064;49.310;8.646;2022-07-21T03:18:05;8.18;;;6.35;;
19735;SDS011;32064;49.310;8.646;2022-07-21T03:20:32;8.65;;;5.60;;
19735;SDS011;32064;49.310;8.646;2022-07-21T03:22:58;8.30;;;6.15;;
19735;SDS011;32064;49.310;8.646;2022-07-21T03:25:24;9.98;;;6.32;;
19735;SDS011;32064;49.310;8.646;2022-07-21T03:27:50;8.07;;;5.80;;
19735;SDS011;32064;49.310;8.646;2022-07-21T03:30:15;15.10;;;6.47;;
19735;SDS011;32064;49.310;8.646;2022-07-21T03:32:41;8.10;;;6.03;;
19735;SDS011;32064;49.310;8.646;2022-07-21T03:35:08;9.07;;;6.18;;
19735;SDS011;32064;49.310;8.646;2022-07-21T03:37:42;7.72;;;5.93;;
19735;SDS011;32064;49.310;8.646;2022-07-21T03:40:20;7.38;;;5.85;;
19735;SDS011;32064;49.310;8.646;2022-07-21T03:42:49;6.57;;;5.78;;
19735;SDS011;32064;49.310;8.646;2022-07-21T03:45:15;12.13;;;6.40;;
19735;SDS011;32064;49.310;8.646;2022-07-21T03:47:41;8.63;;;6.25;;
19735;SDS011;32064;49.310;8.646;2022-07-21T03:50:06;8.40;;;5.90;;
19735;SDS011;32064;49.310;8.646;2022-07-21T03:52:32;7.60;;;6.57;;
19735;SDS011;32064;49.310;8.646;2022-07-21T03:54:58;7.80;;;6.00;;
19735;SDS011;32064;49.310;8.646;2022-07-21T03:57:37;6.63;;;5.95;;
19735;SDS011;32064;49.310;8.646;2022-07-21T04:00:04;7.45;;;6.22;;
19735;SDS011;32064;49.310;8.646;2022-07-21T04:02:31;12.98;;;6.10;;
19735;SDS011;32064;49.310;8.646;2022-07-21T04:04:57;7.03;;;5.80;;
19735;SDS011;32064;49.310;8.646;2022-07-21T04:07:22;8.70;;;5.85;;
19735;SDS011;32064;49.310;8.646;2022-07-21T04:09:48;7.65;;;6.03;;
19735;SDS011;32064;49.310;8.646;2022-07-21T04:12:13;6.28;;;5.53;;
19735;SDS011;32064;49.310;8.646;2022-07-21T04:14:38;7.50;;;5.75;;
19735;SDS011;32064;49.310;8.646;2022-07-21T04:17:04;8.20;;;6.00;;
19735;SDS011;32064;49.310;8.646;2022-07-21T04:19:29;7.28;;;5.75;;
19735;SDS011;32064;49.310;8.646;2022-07-21T04:21:55;7.78;;;5.72;;
19735;SDS011;32064;49.310;8.646;2022-07-21T04:24:20;8.57;;;6.03;;
19735;SDS011;32064;49.310;8.646;2022-07-21T04:26:46;11.55;;;6.43;;
19735;SDS011;32064;49.310;8.646;2022-07-21T04:29:11;6.75;;;5.88;;
19735;SDS011;32064;49.310;8.646;2022-07-21T04:31:39;10.57;;;5.55;;
19735;SDS011;32064;49.310;8.646;2022-07-21T04:34:04;7.60;;;5.30;;
19735;SDS011;32064;49.310;8.646;2022-07-21T04:36:30;9.90;;;6.10;;
19735;SDS011;32064;49.310;8.646;2022-07-21T04:38:55;8.55;;;5.80;;
19735;SDS011;32064;49.310;8.646;2022-07-21T04:41:21;5.97;;;5.38;;
19735;SDS011;32064;49.310;8.646;2022-07-21T04:43:49;6.70;;;5.93;;
19735;SDS011;32064;49.310;8.646;2022-07-21T04:46:14;6.65;;;5.95;;
19735;SDS011;32064;49.310;8.646;2022-07-21T04:48:40;9.02;;;5.90;;
19735;SDS011;32064;49.310;8.646;2022-07-21T04:51:06;7.32;;;5.43;;
19735;SDS011;32064;49.310;8.646;2022-07-21T04:53:31;6.35;;;5.75;;
19735;SDS011;32064;49.310;8.646;2022-07-21T04:55:56;6.60;;;5.30;;
19735;SDS011;32064;49.310;8.646;2022-07-21T04:58:22;9.45;;;6.07;;
19735;SDS011;32064;49.310;8.646;2022-07-21T05:00:47;6.68;;;5.97;;
19735;SDS011;32064;49.310;8.646;2022-07-21T05:03:13;9.07;;;5.97;;
19735;SDS011;32064;49.310;8.646;2022-07-21T05:05:39;6.15;;;5.55;;
19735;SDS011;32064;49.310;8.646;2022-07-21T05:08:05;8.38;;;5.72;;
19735;SDS011;32064;49.310;8.646;2022-07-21T05:10:30;7.35;;;6.18;;
19735;SDS011;32064;49.310;8.646;2022-07-21T05:12:56;9.60;;;6.20;;
19735;SDS011;32064;49.310;8.646;2022-07-21T05:15:21;5.85;;;5.25;;
19735;SDS011;32064;49.310;8.646;2022-07-21T05:17:47;6.88;;;6.03;;
19735;SDS011;32064;49.310;8.646;2022-07-21T05:20:12;7.43;;;5.72;;
19735;SDS011;32064;49.310;8.646;2022-07-21T05:22:38;7.50;;;5.40;;
19735;SDS011;32064;49.310;8.646;2022-07-21T05:25:04;7.55;;;5.68;;
19735;SDS011;32064;49.310;8.646;2022-07-21T05:27:30;9.05;;;6.57;;
19735;SDS011;32064;49.310;8.646;2022-07-21T05:29:56;7.60;;;5.78;;
19735;SDS011;32064;49.310;8.646;2022-07-21T05:32:21;7.30;;;5.57;;
19735;SDS011;32064;49.310;8.646;2022-07-21T05:34:47;7.68;;;5.70;;
19735;SDS011;32064;49.310;8.646;2022-07-21T05:37:12;6.18;;;5.47;;
19735;SDS011;32064;49.310;8.646;2022-07-21T05:39:38;8.65;;;5.53;;
19735;SDS011;32064;49.310;8.646;2022-07-21T05:42:04;7.78;;;5.95;;
19735;SDS011;32064;49.310;8.646;2022-07-21T05:44:29;6.60;;;5.85;;
19735;SDS011;32064;49.310;8.646;2022-07-21T05:46:55;6.25;;;5.15;;
19735;SDS011;32064;49.310;8.646;2022-07-21T05:49:20;5.72;;;5.10;;
19735;SDS011;32064;49.310;8.646;2022-07-21T05:51:46;7.05;;;5.53;;
19735;SDS011;32064;49.310;8.646;2022-07-21T05:54:11;6.70;;;5.03;;
19735;SDS011;32064;49.310;8.646;2022-07-21T05:56:36;6.78;;;5.32;;
19735;SDS011;32064;49.310;8.646;2022-07-21T05:59:02;6.50;;;5.70;;
19735;SDS011;32064;49.310;8.646;2022-07-21T06:01:27;7.35;;;5.20;;
19735;SDS011;32064;49.310;8.646;2022-07-21T06:03:53;7.88;;;6.05;;
19735;SDS011;32064;49.310;8.646;2022-07-21T06:06:19;6.18;;;5.03;;
19735;SDS011;32064;49.310;8.646;2022-07-21T06:08:46;6.47;;;4.85;;
19735;SDS011;32064;49.310;8.646;2022-07-21T06:11:15;4.85;;;4.18;;
19735;SDS011;32064;49.310;8.646;2022-07-21T06:13:42;5.75;;;4.30;;
19735;SDS011;32064;49.310;8.646;2022-07-21T06:16:08;5.53;;;4.45;;
19735;SDS011;32064;49.310;8.646;2022-07-21T06:18:34;5.03;;;4.30;;
19735;SDS011;32064;49.310;8.646;2022-07-21T06:20:59;7.40;;;4.68;;
19735;SDS011;32064;49.310;8.646;2022-07-21T06:23:25;5.25;;;4.53;;
19735;SDS011;32064;49.310;8.646;2022-07-21T06:25:51;5.32;;;4.75;;
19735;SDS011;32064;49.310;8.646;2022-07-21T06:28:17;5.18;;;4.20;;
19735;SDS011;32064;49.310;8.646;2022-07-21T06:30:43;5.10;;;4.53;;
19735;SDS011;32064;49.310;8.646;2022-07-21T06:33:08;6.13;;;4.75;;
19735;SDS011;32064;49.310;8.646;2022-07-21T06:35:34;5.07;;;4.03;;
19735;SDS011;32064;49.310;8.646;2022-07-21T06:38:00;9.50;;;7.28;;
19735;SDS011;32064;49.310;8.646;2022-07-21T06:40:26;6.10;;;4.82;;
19735;SDS011;32064;49.310;8.646;2022-07-21T06:42:51;10.95;;;4.30;;
19735;SDS011;32064;49.310;8.646;2022-07-21T06:45:17;5.70;;;3.95;;
19735;SDS011;32064;49.310;8.646;2022-07-21T06:47:43;7.45;;;4.47;;
19735;SDS011;32064;49.310;8.646;2022-07-21T06:50:08;5.07;;;3.92;;
19735;SDS011;32064;49.310;8.646;2022-07-21T06:52:35;4.68;;;4.28;;
19735;SDS011;32064;49.310;8.646;2022-07-21T06:55:01;5.97;;;3.90;;
19735;SDS011;32064;49.310;8.646;2022-07-21T06:57:28;5.30;;;4.25;;
19735;SDS011;32064;49.310;8.646;2022-07-21T06:59:53;5.90;;;3.72;;
19735;SDS011;32064;49.310;8.646;2022-07-21T07:02:19;3.70;;;3.40;;
19735;SDS011;32064;49.310;8.646;2022-07-21T07:04:44;4.20;;;3.80;;
19735;SDS011;32064;49.310;8.646;2022-07-21T07:07:10;5.07;;;3.97;;
19735;SDS011;32064;49.310;8.646;2022-07-21T07:09:35;4.15;;;3.55;;
19735;SDS011;32064;49.310;8.646;2022-07-21T07:12:01;7.00;;;5.40;;
19735;SDS011;32064;49.310;8.646;2022-07-21T07:14:32;6.97;;;4.00;;
19735;SDS011;32064;49.310;8.646;2022-07-21T07:16:59;6.88;;;4.43;;
19735;SDS011;32064;49.310;8.646;2022-07-21T07:19:26;5.15;;;4.03;;
19735;SDS011;32064;49.310;8.646;2022-07-21T07:21:51;4.15;;;3.75;;
19735;SDS011;32064;49.310;8.646;2022-07-21T07:24:17;7.90;;;6.25;;
19735;SDS011;32064;49.310;8.646;2022-07-21T07:26:45;6.75;;;4.15;;
19735;SDS011;32064;49.310;8.646;2022-07-21T07:29:11;4.47;;;4.07;;
19735;SDS011;32064;49.310;8.646;2022-07-21T07:31:37;3.58;;;3.20;;
19735;SDS011;32064;49.310;8.646;2022-07-21T07:34:03;4.00;;;3.55;;
19735;SDS011;32064;49.310;8.646;2022-07-21T07:36:29;4.07;;;3.67;;
19735;SDS011;32064;49.310;8.646;2022-07-21T07:38:56;3.95;;;3.58;;
19735;SDS011;32064;49.310;8.646;2022-07-21T07:41:23;3.80;;;3.20;;
19735;SDS011;32064;49.310;8.646;2022-07-21T07:43:50;4.50;;;3.58;;
19735;SDS011;32064;49.310;8.646;2022-07-21T07:46:17;4.65;;;3.97;;
19735;SDS011;32064;49.310;8.646;2022-07-21T07:48:43;7.30;;;4.32;;
19735;SDS011;32064;49.310;8.646;2022-07-21T07:51:09;5.78;;;3.88;;
19735;SDS011;32064;49.310;8.646;2022-07-21T07:53:36;4.95;;;3.67;;
19735;SDS011;32064;49.310;8.646;2022-07-21T07:56:03;6.15;;;4.20;;
19735;SDS011;32064;49.310;8.646;2022-07-21T07:58:29;3.97;;;3.58;;
19735;SDS011;32064;49.310;8.646;2022-07-21T08:00:54;5.18;;;3.63;;
19735;SDS011;32064;49.310;8.646;2022-07-21T08:03:20;5.15;;;3.72;;
19735;SDS011;32064;49.310;8.646;2022-07-21T08:05:46;3.85;;;3.22;;
19735;SDS011;32064;49.310;8.646;2022-07-21T08:08:12;3.67;;;2.92;;
19735;SDS011;32064;49.310;8.646;2022-07-21T08:10:38;3.78;;;3.17;;
19735;SDS011;32064;49.310;8.646;2022-07-21T08:13:04;4.70;;;3.80;;
19735;SDS011;32064;49.310;8.646;2022-07-21T08:15:29;3.92;;;3.28;;
19735;SDS011;32064;49.310;8.646;2022-07-21T08:17:55;5.22;;;3.45;;
19735;SDS011;32064;49.310;8.646;2022-07-21T08:20:20;5.22;;;3.65;;
19735;SDS011;32064;49.310;8.646;2022-07-21T08:22:46;4.82;;;4.25;;
19735;SDS011;32064;49.310;8.646;2022-07-21T08:25:11;5.72;;;3.83;;
19735;SDS011;32064;49.310;8.646;2022-07-21T08:27:37;4.22;;;3.20;;
19735;SDS011;32064;49.310;8.646;2022-07-21T08:30:04;4.07;;;3.05;;
19735;SDS011;32064;49.310;8.646;2022-07-21T08:32:30;3.95;;;2.95;;
19735;SDS011;32064;49.310;8.646;2022-07-21T08:34:55;4.00;;;3.08;;
19735;SDS011;32064;49.310;8.646;2022-07-21T08:37:21;4.50;;;3.10;;
19735;SDS011;32064;49.310;8.646;2022-07-21T08:39:46;5.05;;;3.67;;
19735;SDS011;32064;49.310;8.646;2022-07-21T08:42:13;5.43;;;3.42;;
19735;SDS011;32064;49.310;8.646;2022-07-21T08:44:39;3.85;;;2.90;;
19735;SDS011;32064;49.310;8.646;2022-07-21T08:47:07;7.25;;;3.72;;
19735;SDS011;32064;49.310;8.646;2022-07-21T08:49:36;4.63;;;3.80;;
19735;SDS011;32064;49.310;8.646;2022-07-21T08:52:05;4.13;;;3.70;;
19735;SDS011;32064;49.310;8.646;2022-07-21T08:54:31;5.03;;;3.35;;
19735;SDS011;32064;49.310;8.646;2022-07-21T08:56:57;4.07;;;3.45;;
19735;SDS011;32064;49.310;8.646;2022-07-21T08:59:23;5.85;;;3.88;;
19735;SDS011;32064;49.310;8.646;2022-07-21T09:01:48;4.28;;;3.05;;
19735;SDS011;32064;49.310;8.646;2022-07-21T09:04:21;3.55;;;3.22;;
19735;SDS011;32064;49.310;8.646;2022-07-21T09:06:57;4.80;;;3.90;;
19735;SDS011;32064;49.310;8.646;2022-07-21T09:09:22;3.47;;;3.17;;
19735;SDS011;32064;49.310;8.646;2022-07-21T09:11:48;4.18;;;3.13;;
19735;SDS011;32064;49.310;8.646;2022-07-21T09:14:16;5.03;;;3.53;;
19735;SDS011;32064;49.310;8.646;2022-07-21T09:16:45;4.25;;;3.58;;
19735;SDS011;32064;49.310;8.646;2022-07-21T09:19:23;6.68;;;4.95;;
19735;SDS011;32064;49.310;8.646;2022-07-21T09:21:56;6.18;;;4.20;;
19735;SDS011;32064;49.310;8.646;2022-07-21T09:24:24;3.85;;;3.35;;
19735;SDS011;32064;49.310;8.646;2022-07-21T09:27:13;4.38;;;3.97;;
19735;SDS011;32064;49.310;8.646;2022-07-21T09:32:23;4.05;;;3.65;;
19735;SDS011;32064;49.310;8.646;2022-07-21T09:37:23;4.97;;;4.47;;
19735;SDS011;32064;49.310;8.646;2022-07-21T09:44:53;6.10;;;4.10;;
19735;SDS011;32064;49.310;8.646;2022-07-21T09:47:19;4.32;;;3.22;;
19735;SDS011;32064;49.310;8.646;2022-07-21T09:49:46;5.38;;;3.72;;
19735;SDS011;32064;49.310;8.646;2022-07-21T09:54:46;3.47;;;3.17;;
19735;SDS011;32064;49.310;8.646;2022-07-21T09:57:12;3.72;;;3.25;;
19735;SDS011;32064;49.310;8.646;2022-07-21T09:59:42;4.05;;;3.15;;
19735;SDS011;32064;49.310;8.646;2022-07-21T10:02:10;4.55;;;3.50;;
19735;SDS011;32064;49.310;8.646;2022-07-21T10:04:43;3.92;;;3.42;;
19735;SDS011;32064;49.310;8.646;2022-07-21T10:07:11;7.28;;;2.80;;
19735;SDS011;32064;49.310;8.646;2022-07-21T10:09:38;2.70;;;2.50;;
19735;SDS011;32064;49.310;8.646;2022-07-21T10:12:05;3.10;;;2.80;;
19735;SDS011;32064;49.310;8.646;2022-07-21T10:14:32;3.53;;;2.67;;
19735;SDS011;32064;49.310;8.646;2022-07-21T10:16:57;3.13;;;2.83;;
19735;SDS011;32064;49.310;8.646;2022-07-21T10:24:54;3.55;;;3.17;;
19735;SDS011;32064;49.310;8.646;2022-07-21T10:27:20;3.83;;;2.90;;
19735;SDS011;32064;49.310;8.646;2022-07-21T10:29:59;4.18;;;2.72;;
19735;SDS011;32064;49.310;8.646;2022-07-21T10:37:50;3.25;;;2.72;;
19735;SDS011;32064;49.310;8.646;2022-07-21T10:42:45;2.33;;;2.13;;
19735;SDS011;32064;49.310;8.646;2022-07-21T10:45:36;8.68;;;7.75;;
19735;SDS011;32064;49.310;8.646;2022-07-21T10:51:15;3.35;;;2.65;;
19735;SDS011;32064;49.310;8.646;2022-07-21T10:53:41;3.15;;;2.33;;
19735;SDS011;32064;49.310;8.646;2022-07-21T10:56:10;2.80;;;2.50;;
19735;SDS011;32064;49.310;8.646;2022-07-21T10:58:51;8.00;;;3.47;;
19735;SDS011;32064;49.310;8.646;2022-07-21T11:01:23;2.55;;;2.35;;
19735;SDS011;32064;49.310;8.646;2022-07-21T11:04:09;3.38;;;2.67;;
19735;SDS011;32064;49.310;8.646;2022-07-21T11:06:36;12.57;;;2.95;;
19735;SDS011;32064;49.310;8.646;2022-07-21T11:11:29;6.30;;;2.88;;
19735;SDS011;32064;49.310;8.646;2022-07-21T11:14:15;7.07;;;2.97;;
19735;SDS011;32064;49.310;8.646;2022-07-21T11:21:57;3.55;;;2.60;;
19735;SDS011;32064;49.310;8.646;2022-07-21T11:24:25;5.35;;;2.58;;
19735;SDS011;32064;49.310;8.646;2022-07-21T11:26:59;2.63;;;2.42;;
19735;SDS011;32064;49.310;8.646;2022-07-21T11:29:27;2.75;;;2.50;;
19735;SDS011;32064;49.310;8.646;2022-07-21T11:31:54;3.13;;;2.30;;
19735;SDS011;32064;49.310;8.646;2022-07-21T11:34:22;2.58;;;2.20;;
19735;SDS011;32064;49.310;8.646;2022-07-21T11:36:49;2.95;;;2.45;;
19735;SDS011;32064;49.310;8.646;2022-07-21T11:39:23;2.92;;;2.30;;
19735;SDS011;32064;49.310;8.646;2022-07-21T11:42:11;2.63;;;2.28;;
19735;SDS011;32064;49.310;8.646;2022-07-21T11:44:40;2.63;;;2.20;;
19735;SDS011;32064;49.310;8.646;2022-07-21T11:47:09;2.35;;;2.15;;
19735;SDS011;32064;49.310;8.646;2022-07-21T11:49:41;2.28;;;2.08;;
19735;SDS011;32064;49.310;8.646;2022-07-21T11:52:08;2.38;;;1.98;;
19735;SDS011;32064;49.310;8.646;2022-07-21T11:54:46;2.30;;;2.10;;
19735;SDS011;32064;49.310;8.646;2022-07-21T11:57:16;3.90;;;2.10;;
19735;SDS011;32064;49.310;8.646;2022-07-21T11:59:43;2.80;;;2.15;;
19735;SDS011;32064;49.310;8.646;2022-07-21T12:02:11;2.72;;;2.45;;
19735;SDS011;32064;49.310;8.646;2022-07-21T12:04:57;3.78;;;2.25;;
19735;SDS011;32064;49.310;8.646;2022-07-21T12:07:34;2.42;;;2.00;;
19735;SDS011;32064;49.310;8.646;2022-07-21T12:12:46;2.38;;;2.00;;
19735;SDS011;32064;49.310;8.646;2022-07-21T12:15:15;3.25;;;2.33;;
19735;SDS011;32064;49.310;8.646;2022-07-21T12:17:45;2.80;;;2.45;;
19735;SDS011;32064;49.310;8.646;2022-07-21T12:20:12;3.15;;;2.22;;
19735;SDS011;32064;49.310;8.646;2022-07-21T12:22:44;3.22;;;2.92;;
19735;SDS011;32064;49.310;8.646;2022-07-21T12:25:15;2.58;;;2.38;;
19735;SDS011;32064;49.310;8.646;2022-07-21T12:27:43;2.33;;;1.95;;
19735;SDS011;32064;49.310;8.646;2022-07-21T12:35:32;2.92;;;2.58;;
19735;SDS011;32064;49.310;8.646;2022-07-21T12:40:33;2.90;;;2.70;;
19735;SDS011;32064;49.310;8.646;2022-07-21T12:43:08;3.28;;;2.63;;
19735;SDS011;32064;49.310;8.646;2022-07-21T12:45:47;2.72;;;2.13;;
19735;SDS011;32064;49.310;8.646;2022-07-21T12:48:32;2.30;;;2.03;;
19735;SDS011;32064;49.310;8.646;2022-07-21T12:51:02;3.90;;;1.95;;
19735;SDS011;32064;49.310;8.646;2022-07-21T12:53:36;3.53;;;2.10;;
19735;SDS011;32064;49.310;8.646;2022-07-21T12:56:13;3.88;;;2.40;;
19735;SDS011;32064;49.310;8.646;2022-07-21T12:58:41;2.25;;;1.75;;
19735;SDS011;32064;49.310;8.646;2022-07-21T13:01:07;3.13;;;2.45;;
19735;SDS011;32064;49.310;8.646;2022-07-21T13:03:33;2.35;;;2.03;;
19735;SDS011;32064;49.310;8.646;2022-07-21T13:06:00;3.05;;;2.33;;
19735;SDS011;32064;49.310;8.646;2022-07-21T13:08:32;2.35;;;2.15;;
19735;SDS011;32064;49.310;8.646;2022-07-21T13:11:05;3.72;;;2.17;;
19735;SDS011;32064;49.310;8.646;2022-07-21T13:13:31;2.38;;;2.17;;
19735;SDS011;32064;49.310;8.646;2022-07-21T13:15:57;2.92;;;2.50;;
19735;SDS011;32064;49.310;8.646;2022-07-21T13:18:23;3.10;;;2.40;;
19735;SDS011;32064;49.310;8.646;2022-07-21T13:20:56;2.50;;;2.05;;
19735;SDS011;32064;49.310;8.646;2022-07-21T13:23:22;2.63;;;2.42;;
19735;SDS011;32064;49.310;8.646;2022-07-21T13:25:48;3.10;;;2.17;;
19735;SDS011;32064;49.310;8.646;2022-07-21T13:28:14;2.97;;;2.65;;
19735;SDS011;32064;49.310;8.646;2022-07-21T13:30:40;4.55;;;3.10;;
19735;SDS011;32064;49.310;8.646;2022-07-21T13:33:06;4.82;;;2.45;;
19735;SDS011;32064;49.310;8.646;2022-07-21T13:35:31;4.55;;;2.60;;
19735;SDS011;32064;49.310;8.646;2022-07-21T13:37:57;3.08;;;2.65;;
19735;SDS011;32064;49.310;8.646;2022-07-21T13:40:23;2.53;;;2.30;;
19735;SDS011;32064;49.310;8.646;2022-07-21T13:42:50;3.70;;;1.98;;
19735;SDS011;32064;49.310;8.646;2022-07-21T13:45:15;2.97;;;2.25;;
19735;SDS011;32064;49.310;8.646;2022-07-21T13:47:42;3.78;;;2.85;;
19735;SDS011;32064;49.310;8.646;2022-07-21T13:50:08;3.33;;;1.92;;
19735;SDS011;32064;49.310;8.646;2022-07-21T13:52:34;2.72;;;2.25;;
19735;SDS011;32064;49.310;8.646;2022-07-21T13:55:00;2.45;;;2.25;;
19735;SDS011;32064;49.310;8.646;2022-07-21T13:57:29;2.63;;;2.40;;
19735;SDS011;32064;49.310;8.646;2022-07-21T13:59:54;3.67;;;2.10;;
19735;SDS011;32064;49.310;8.646;2022-07-21T14:02:19;2.85;;;2.00;;
19735;SDS011;32064;49.310;8.646;2022-07-21T14:04:45;2.63;;;1.85;;
19735;SDS011;32064;49.310;8.646;2022-07-21T14:07:11;2.92;;;2.40;;
19735;SDS011;32064;49.310;8.646;2022-07-21T14:09:39;7.30;;;2.47;;
19735;SDS011;32064;49.310;8.646;2022-07-21T14:12:08;2.78;;;2.25;;
19735;SDS011;32064;49.310;8.646;2022-07-21T14:14:37;3.72;;;2.70;;
19735;SDS011;32064;49.310;8.646;2022-07-21T14:17:03;4.30;;;2.28;;
19735;SDS011;32064;49.310;8.646;2022-07-21T14:19:29;3.97;;;2.42;;
19735;SDS011;32064;49.310;8.646;2022-07-21T14:21:55;2.40;;;2.20;;
19735;SDS011;32064;49.310;8.646;2022-07-21T14:24:20;2.50;;;2.30;;
19735;SDS011;32064;49.310;8.646;2022-07-21T14:27:04;3.75;;;2.03;;
19735;SDS011;32064;49.310;8.646;2022-07-21T14:29:30;5.18;;;2.10;;
19735;SDS011;32064;49.310;8.646;2022-07-21T14:31:55;2.90;;;1.95;;
19735;SDS011;32064;49.310;8.646;2022-07-21T14:34:21;3.20;;;2.30;;
19735;SDS011;32064;49.310;8.646;2022-07-21T14:36:46;2.20;;;2.00;;
19735;SDS011;32064;49.310;8.646;2022-07-21T14:39:12;2.65;;;2.45;;
19735;SDS011;32064;49.310;8.646;2022-07-21T14:41:39;2.85;;;2.22;;
19735;SDS011;32064;49.310;8.646;2022-07-21T14:44:04;2.88;;;2.40;;
19735;SDS011;32064;49.310;8.646;2022-07-21T14:46:32;5.45;;;1.83;;
19735;SDS011;32064;49.310;8.646;2022-07-21T14:48:58;3.15;;;2.55;;
19735;SDS011;32064;49.310;8.646;2022-07-21T14:51:23;2.47;;;2.03;;
19735;SDS011;32064;49.310;8.646;2022-07-21T14:53:48;2.63;;;2.10;;
19735;SDS011;32064;49.310;8.646;2022-07-21T14:56:14;2.85;;;2.40;;
19735;SDS011;32064;49.310;8.646;2022-07-21T14:58:39;3.58;;;1.90;;
19735;SDS011;32064;49.310;8.646;2022-07-21T15:01:05;2.45;;;2.10;;
19735;SDS011;32064;49.310;8.646;2022-07-21T15:03:30;2.30;;;2.10;;
19735;SDS011;32064;49.310;8.646;2022-07-21T15:05:56;2.35;;;2.15;;
19735;SDS011;32064;49.310;8.646;2022-07-21T15:08:21;2.60;;;2.40;;
19735;SDS011;32064;49.310;8.646;2022-07-21T15:10:47;2.95;;;2.60;;
19735;SDS011;32064;49.310;8.646;2022-07-21T15:13:14;3.28;;;2.67;;
19735;SDS011;32064;49.310;8.646;2022-07-21T15:15:40;2.85;;;2.00;;
19735;SDS011;32064;49.310;8.646;2022-07-21T15:18:06;2.60;;;2.40;;
19735;SDS011;32064;49.310;8.646;2022-07-21T15:20:33;3.15;;;2.40;;
19735;SDS011;32064;49.310;8.646;2022-07-21T15:22:58;2.90;;;2.30;;
19735;SDS011;32064;49.310;8.646;2022-07-21T15:25:24;2.33;;;2.13;;
19735;SDS011;32064;49.310;8.646;2022-07-21T15:27:49;3.17;;;2.20;;
19735;SDS011;32064;49.310;8.646;2022-07-21T15:30:17;2.40;;;2.20;;
19735;SDS011;32064;49.310;8.646;2022-07-21T15:32:42;2.00;;;1.80;;
19735;SDS011;32064;49.310;8.646;2022-07-21T15:35:08;2.30;;;2.10;;